Nearby METAR Reports

 

EHGG - Groningen/Eelde, Netherlands
Distance from station: WZW 29km
Updated: 18/11/2019 04:25
Drizzle, Meestal bewolkt
Drizzle, Meestal bewolkt
 Wind van N
Wind: N 20 km/h
Temperatuur: 6°C
Wind Chill: 2°C
Dauwpunt: 5°C
Vochtigheid: 93%
Barometer: 1006 hPa
Overzicht: Drizzle
Clouds: Meestal bewolkt
Visibility: 10 km
Cloud details: Few Clouds 274 m
Gedeeltelijk bewolkt 518 m
Meestal bewolkt 610 m
2019/11/18 03:25 EHGG 180325Z AUTO 35011KT 300V020 9999 DZ FEW009 SCT017 BKN020 06/05 Q1006
ETNT - Wittmundhaven(Ga, Germany
Distance from station: ONO 57km
Updated: 18/11/2019 04:20
Lichte regen, Drizzle, Mist, Meestal bewolkt
Lichte regen, Drizzle, Mist, Meestal bewolkt
 Wind van NNO
Wind: NNO 19 km/h
Temperatuur: 6°C
Wind Chill: 3°C
Dauwpunt: 6°C
Vochtigheid: 100%
Barometer: 1005 hPa
Overzicht: Lichte regen, Drizzle, Mist
Clouds: Meestal bewolkt
Visibility: 4 km
Cloud details: Few Clouds 61 m
Meestal bewolkt 183 m
2019/11/18 03:20 ETNT 180320Z 03010KT 4000 -RADZ BR FEW002 BKN006 06/06 Q1005 YLO
 
ETWM - Meppen, Germany
Distance from station: ZZO 66km
Updated: 18/11/2019 04:20

 Wind van NNO
Wind: NNO 15 km/h
Temperatuur: 5°C
Wind Chill: 2°C
Dauwpunt: 5°C
Vochtigheid: 100%
Barometer: 1005 hPa
2019/11/18 03:20 ETWM 180320Z AUTO 02008KT //// // ////// 05/05 Q1005 ///
EHMA - Awg-1 Sea, Netherlands
Distance from station: WNW 70km
Updated: 18/11/2019 03:55
Lichte regen, Meestal bewolkt
Lichte regen, Meestal bewolkt
 Wind van NNO
Wind: NNO 31 km/h
Temperatuur: 7°C
Wind Chill: 3°C
Dauwpunt: 4°C
Vochtigheid: 81%
Barometer: 1008 hPa
Overzicht: Lichte regen
Clouds: Meestal bewolkt
Visibility: 10 km
Cloud details: Few Clouds 335 m
Few Clouds 457 m
Gedeeltelijk bewolkt 640 m
Meestal bewolkt 762 m
2019/11/18 02:55 EHMA 180255Z AUTO 02017KT 9999 -RA FEW011 FEW015CB SCT021 BKN025 07/04 Q1008 W///H///
 
EHLW - Leeuwarden Rnlaf, Netherlands
Distance from station: W 79km
Updated: 18/11/2019 04:25
Rain showers, Meestal bewolkt
Rain showers, Meestal bewolkt
 Wind van NNO
Wind: NNO 13 km/h
Temperatuur: 6°C
Wind Chill: 3°C
Dauwpunt: 5°C
Vochtigheid: 93%
Barometer: 1008 hPa
Overzicht: Rain Showers
Clouds: Meestal bewolkt
Visibility: 10 km
Cloud details: Gedeeltelijk bewolkt 457 m
Gedeeltelijk bewolkt 762 m
Meestal bewolkt 914 m
2019/11/18 03:25 EHLW 180325Z AUTO 02007KT 9999 SHRA SCT015CB SCT025 BKN030 06/05 Q1008 WHT